Time;durP1;ratioP1;P1;durP2;ratioP2;P2;SDS_P1;SDS_P2;PMS_P1;PMS_P2;Temp;Humidity;BMP_temperature;BMP_pressure;BME280_temperature;BME280_humidity;BME280_pressure;Samples;Min_cycle;Max_cycle;Signal;HPM_P1;HPM_P2
2021/04/23 00:01:11;;;;;;;8.30;6.47;;;;;;;14.32;53.45;100709.61;1711274;84;21181;-50
2021/04/23 00:03:44;;;;;;;7.92;5.85;;;;;;;14.28;53.66;100710.59;1712158;84;21173;-50
2021/04/23 00:06:30;;;;;;;7.45;6.55;;;;;;;14.30;53.64;100695.54;1672169;84;21127;-50
2021/04/23 00:09:18;;;;;;;7.15;6.22;;;;;;;14.36;53.51;100687.90;1685632;84;21186;-49
2021/04/23 00:11:55;;;;;;;10.18;7.30;;;;;;;14.28;53.77;100687.65;1707999;84;21139;-52
2021/04/23 00:14:27;;;;;;;9.85;6.65;;;;;;;14.33;53.81;100680.91;1741327;82;21136;-70
2021/04/23 00:16:55;;;;;;;8.25;6.92;;;;;;;14.33;53.94;100682.70;1744985;81;21166;-52
2021/04/23 00:19:24;;;;;;;8.13;6.20;;;;;;;14.30;54.18;100684.95;1719104;81;21147;-70
2021/04/23 00:21:53;;;;;;;7.22;6.33;;;;;;;14.29;54.22;100679.23;1718606;83;21187;-70
2021/04/23 00:24:21;;;;;;;7.10;5.85;;;;;;;14.33;54.17;100672.97;1737918;82;21188;-71
2021/04/23 00:26:49;;;;;;;8.00;7.00;;;;;;;14.34;54.24;100680.00;1739099;82;21123;-52
2021/04/23 00:29:17;;;;;;;7.60;6.22;;;;;;;14.31;54.50;100679.22;1718786;83;21143;-70
2021/04/23 00:31:46;;;;;;;8.35;6.20;;;;;;;14.31;54.58;100672.59;1719172;82;21282;-52
2021/04/23 00:34:14;;;;;;;8.25;6.85;;;;;;;14.28;54.68;100673.09;1718335;82;21206;-53
2021/04/23 00:36:41;;;;;;;7.05;6.35;;;;;;;14.28;54.74;100666.47;1723489;82;21142;-52
2021/04/23 00:39:09;;;;;;;7.55;6.33;;;;;;;14.26;55.04;100672.25;1716759;83;21686;-52
2021/04/23 00:41:36;;;;;;;7.90;6.42;;;;;;;14.30;55.03;100667.73;1717027;83;21545;-70
2021/04/23 00:44:05;;;;;;;9.15;6.90;;;;;;;14.28;55.19;100668.23;1722819;82;21232;-70
2021/04/23 00:46:34;;;;;;;7.97;7.17;;;;;;;14.27;55.36;100666.05;1743989;82;21111;-53
2021/04/23 00:49:03;;;;;;;8.38;7.40;;;;;;;14.22;55.73;100670.58;1710789;84;21155;-70
2021/04/23 00:51:36;;;;;;;8.33;7.37;;;;;;;14.21;55.83;100674.13;1748546;81;21159;-54
2021/04/23 00:54:05;;;;;;;9.28;7.15;;;;;;;14.21;55.77;100671.92;1748152;81;21156;-71
2021/04/23 00:56:37;;;;;;;8.13;7.22;;;;;;;14.22;55.85;100669.69;1760320;81;21131;-53
2021/04/23 00:59:07;;;;;;;8.30;6.78;;;;;;;14.19;55.98;100669.75;1761829;81;21599;-53
2021/04/23 01:01:49;;;;;;;10.30;6.97;;;;;;;14.15;56.14;100664.11;1761147;81;21597;-55
2021/04/23 01:04:18;;;;;;;8.68;6.87;;;;;;;14.15;56.16;100663.67;1742098;81;21577;-69
2021/04/23 01:06:46;;;;;;;10.85;7.75;;;;;;;14.16;56.04;100660.55;1731636;83;21171;-51
2021/04/23 01:09:22;;;;;;;10.10;7.87;;;;;;;14.11;56.26;100667.30;1731537;82;21184;-69
2021/04/23 01:11:52;;;;;;;8.78;7.65;;;;;;;14.05;56.42;100666.98;1737868;80;21152;-69
2021/04/23 01:14:19;;;;;;;10.43;7.60;;;;;;;13.87;57.27;100677.52;1731633;83;21601;-69
2021/04/23 01:16:48;;;;;;;9.13;8.20;;;;;;;13.85;57.37;100674.47;1731618;82;21174;-69
2021/04/23 01:19:19;;;;;;;9.05;7.90;;;;;;;13.87;56.97;100673.55;1731451;83;21200;-51
2021/04/23 01:21:49;;;;;;;9.60;7.83;;;;;;;13.78;57.43;100673.73;1744039;81;21111;-69
2021/04/23 01:24:20;;;;;;;10.75;7.62;;;;;;;13.74;57.46;100676.88;1731345;82;21212;-51
2021/04/23 01:26:52;;;;;;;11.10;8.43;;;;;;;13.70;57.86;100673.02;1732132;83;21147;-69
2021/04/23 01:29:20;;;;;;;10.63;8.35;;;;;;;13.67;57.83;100670.00;1732584;81;21178;-69
2021/04/23 01:31:52;;;;;;;11.57;8.68;;;;;;;13.62;58.41;100674.05;1741006;81;21156;-69
2021/04/23 01:34:30;;;;;;;10.50;8.40;;;;;;;13.64;58.06;100681.50;1745095;81;21150;-52
2021/04/23 01:36:59;;;;;;;9.53;7.83;;;;;;;13.52;58.74;100677.34;1761494;81;21272;-69
2021/04/23 01:39:29;;;;;;;9.50;7.78;;;;;;;13.54;58.73;100669.36;1756698;81;21176;-69
2021/04/23 01:41:56;;;;;;;10.78;8.48;;;;;;;13.53;58.74;100669.82;1731350;82;21309;-69
2021/04/23 01:44:24;;;;;;;9.98;8.95;;;;;;;13.54;58.63;100670.67;1731616;83;21467;-51
2021/04/23 01:46:53;;;;;;;11.70;9.58;;;;;;;13.54;58.66;100674.64;1731316;83;21175;-69
2021/04/23 01:49:22;;;;;;;10.38;8.48;;;;;;;13.51;59.05;100680.87;1743025;81;21194;-51
2021/04/23 01:51:58;;;;;;;12.47;9.48;;;;;;;13.49;58.96;100681.36;1730880;82;21298;-68
2021/04/23 01:54:26;;;;;;;11.53;8.80;;;;;;;13.51;58.98;100674.70;1676511;85;21220;-69
2021/04/23 01:56:54;;;;;;;10.03;8.88;;;;;;;13.53;59.08;100683.05;1721315;82;21184;-68
2021/04/23 01:59:22;;;;;;;10.78;8.43;;;;;;;13.52;59.32;100680.41;1724454;82;21172;-51
2021/04/23 02:01:50;;;;;;;9.53;8.63;;;;;;;13.56;59.34;100685.20;1676218;85;21166;-69
2021/04/23 02:04:19;;;;;;;9.93;8.93;;;;;;;13.52;59.69;100683.95;1718416;82;21155;-51
2021/04/23 02:06:48;;;;;;;9.70;8.70;;;;;;;13.51;59.78;100685.28;1727290;82;21119;-69
2021/04/23 02:09:16;;;;;;;10.28;9.08;;;;;;;13.53;59.75;100688.77;1719073;82;21177;-70
2021/04/23 02:11:46;;;;;;;9.30;8.40;;;;;;;13.50;60.45;100683.10;1718791;83;21164;-52
2021/04/23 02:14:14;;;;;;;9.58;8.65;;;;;;;13.55;60.18;100676.39;1718726;83;21145;-69
2021/04/23 02:16:42;;;;;;;10.95;8.58;;;;;;;13.56;60.44;100684.74;1698309;83;21176;-52
2021/04/23 02:19:11;;;;;;;10.55;8.93;;;;;;;13.56;60.55;100688.70;1718487;82;21171;-52
2021/04/23 02:21:40;;;;;;;10.10;8.95;;;;;;;13.58;60.53;100688.70;1718422;82;21169;-51
2021/04/23 02:24:08;;;;;;;10.65;9.18;;;;;;;13.61;60.38;100684.67;1679188;82;21211;-69
2021/04/23 02:26:37;;;;;;;9.43;8.50;;;;;;;13.63;60.39;100681.55;1741538;82;21151;-51
2021/04/23 02:29:08;;;;;;;11.03;9.83;;;;;;;13.64;60.47;100684.61;1722186;82;21165;-52
2021/04/23 02:31:38;;;;;;;10.68;8.90;;;;;;;13.61;60.58;100689.49;1718309;82;21188;-69
2021/04/23 02:34:09;;;;;;;12.73;10.30;;;;;;;13.53;61.02;100695.38;1728498;82;21281;-52
2021/04/23 02:36:38;;;;;;;14.58;10.23;;;;;;;13.50;61.08;100697.64;1687238;84;21134;-69
2021/04/23 02:39:07;;;;;;;11.12;10.00;;;;;;;13.55;61.25;100696.69;1718351;83;21272;-69
2021/04/23 02:41:36;;;;;;;10.98;9.50;;;;;;;13.54;61.85;100695.80;1718853;83;21513;-68
2021/04/23 02:44:04;;;;;;;13.03;11.40;;;;;;;13.54;61.85;100695.80;1734978;81;21084;-69
2021/04/23 02:46:34;;;;;;;12.35;10.85;;;;;;;12.92;63.51;100695.59;1747147;81;21535;-52
2021/04/23 02:49:04;;;;;;;13.35;11.90;;;;;;;12.47;65.20;100702.88;1744110;81;21139;-51
2021/04/23 02:51:36;;;;;;;12.43;11.12;;;;;;;12.38;65.98;100701.69;1721148;82;21586;-51
2021/04/23 02:54:04;;;;;;;12.23;10.85;;;;;;;13.00;64.38;100692.80;1736233;81;21150;-51
2021/04/23 02:56:33;;;;;;;14.45;12.90;;;;;;;13.34;63.26;100702.33;1732341;81;21693;-69
2021/04/23 02:59:01;;;;;;;14.68;12.30;;;;;;;13.39;62.99;100702.23;1731243;83;21221;-69
2021/04/23 03:01:33;;;;;;;12.50;11.25;;;;;;;13.39;62.84;100703.55;1743368;81;21123;-69
2021/04/23 03:04:01;;;;;;;12.88;11.50;;;;;;;13.39;62.94;100699.58;1735938;81;21211;-51
2021/04/23 03:06:30;;;;;;;16.23;12.10;;;;;;;13.40;62.99;100694.72;1732246;81;21713;-51
2021/04/23 03:08:59;;;;;;;12.70;11.50;;;;;;;13.36;63.50;100689.95;1731580;83;21334;-69
2021/04/23 03:11:27;;;;;;;13.75;12.35;;;;;;;13.36;63.39;100685.09;1750658;81;21122;-69
2021/04/23 03:13:56;;;;;;;13.62;11.97;;;;;;;13.35;63.94;100689.96;1754489;81;21148;-69
2021/04/23 03:16:24;;;;;;;14.87;13.23;;;;;;;13.34;64.21;100691.75;1733952;81;21152;-68
2021/04/23 03:18:53;;;;;;;14.98;12.60;;;;;;;13.41;64.13;100695.61;1734346;81;21156;-52
2021/04/23 03:21:25;;;;;;;14.40;11.83;;;;;;;13.43;64.41;100689.41;1741812;81;21159;-52
2021/04/23 03:23:52;;;;;;;12.95;11.68;;;;;;;13.46;64.35;100693.31;1736709;81;21665;-68
2021/04/23 03:26:21;;;;;;;12.60;11.30;;;;;;;13.55;64.08;100685.64;1761370;81;21166;-68
2021/04/23 03:28:49;;;;;;;17.12;12.50;;;;;;;13.60;63.99;100682.92;1761029;81;21180;-52
2021/04/23 03:31:18;;;;;;;14.90;12.45;;;;;;;13.66;63.83;100684.13;1761175;81;21155;-59
2021/04/23 03:33:45;;;;;;;13.83;12.37;;;;;;;13.67;63.72;100680.12;1761523;81;21166;-69
2021/04/23 03:36:13;;;;;;;17.65;13.50;;;;;;;13.70;63.63;100684.92;1731559;83;21190;-69
2021/04/23 03:38:44;;;;;;;14.38;12.05;;;;;;;13.73;63.51;100688.83;1753673;81;21135;-52
2021/04/23 03:41:19;;;;;;;14.18;12.73;;;;;;;13.74;63.41;100690.58;1761887;81;21526;-52
2021/04/23 03:43:46;;;;;;;17.80;13.32;;;;;;;13.71;63.50;100686.67;1760990;81;21170;-52
2021/04/23 03:46:14;;;;;;;15.70;12.95;;;;;;;13.73;63.35;100691.48;1760265;81;21127;-69
2021/04/23 03:48:43;;;;;;;13.50;12.10;;;;;;;13.75;63.40;100685.70;1750074;81;21115;-69
2021/04/23 03:51:13;;;;;;;14.13;12.63;;;;;;;13.76;63.39;100688.77;1744863;81;21167;-69
2021/04/23 03:53:40;;;;;;;14.95;13.00;;;;;;;13.77;63.41;100683.91;1738349;81;21619;-52
2021/04/23 03:56:09;;;;;;;13.90;12.47;;;;;;;13.78;63.44;100685.17;1683351;85;21111;-69
2021/04/23 03:58:37;;;;;;;14.50;12.95;;;;;;;13.82;63.31;100682.03;1699898;84;21150;-52
2021/04/23 04:01:08;;;;;;;14.03;12.63;;;;;;;13.83;63.33;100683.31;1731881;81;21132;-52
2021/04/23 04:03:36;;;;;;;14.73;13.22;;;;;;;13.78;63.54;100677.24;1683586;85;21134;-69
2021/04/23 04:06:05;;;;;;;14.13;12.63;;;;;;;13.82;63.44;100673.63;1732012;82;21554;-68
2021/04/23 04:08:34;;;;;;;15.43;13.32;;;;;;;13.85;63.56;100675.80;1732134;81;21128;-69
2021/04/23 04:11:03;;;;;;;14.58;12.95;;;;;;;13.89;63.73;100681.01;1733238;82;21119;-69
2021/04/23 04:13:32;;;;;;;;;;;;;;;13.97;63.73;100684.33;1735033;81;21127;-54
2021/04/23 04:16:00;;;;;;;13.58;11.68;;;;;;;14.06;63.79;100685.94;1732497;82;20168;-69
2021/04/23 04:18:29;;;;;;;16.40;12.60;;;;;;;14.12;64.01;100682.27;1683610;85;21135;-69
2021/04/23 04:20:56;;;;;;;18.27;13.80;;;;;;;14.22;63.90;100684.25;1694524;84;21573;-54
2021/04/23 04:23:24;;;;;;;14.63;13.13;;;;;;;14.24;64.25;100687.30;1738583;81;21173;-52
2021/04/23 04:25:56;;;;;;;15.25;12.58;;;;;;;14.35;64.10;100680.42;1735401;82;21151;-52
2021/04/23 04:28:26;;;;;;;14.55;12.98;;;;;;;14.43;64.13;100686.42;1683692;85;21111;-52
2021/04/23 04:31:06;;;;;;;14.93;13.35;;;;;;;14.58;64.06;100684.29;1733050;82;21123;-69
2021/04/23 04:33:35;;;;;;;17.52;14.15;;;;;;;14.65;63.77;100686.36;1736481;82;21299;-69
2021/04/23 04:36:05;;;;;;;15.15;13.28;;;;;;;14.78;63.72;100689.16;1732415;81;21100;-54
2021/04/23 04:38:33;;;;;;;15.68;13.55;;;;;;;14.95;63.59;100681.22;1723422;82;21586;-70
2021/04/23 04:41:00;;;;;;;13.62;11.43;;;;;;;15.10;63.44;100683.92;1721588;82;21161;-53
2021/04/23 04:43:29;;;;;;;17.17;12.95;;;;;;;15.16;63.12;100677.14;1727062;82;21175;-53
2021/04/23 04:45:57;;;;;;;16.37;12.68;;;;;;;15.30;62.95;100674.99;1718579;83;21574;-70
2021/04/23 04:48:26;;;;;;;16.32;12.28;;;;;;;15.45;62.87;100670.19;1718605;82;21157;-69
2021/04/23 04:50:58;;;;;;;14.28;11.97;;;;;;;15.56;62.37;100676.03;1729612;82;21104;-53
2021/04/23 04:53:25;;;;;;;13.15;11.75;;;;;;;15.74;61.66;100686.58;1737117;82;21227;-70
2021/04/23 04:55:55;;;;;;;12.78;10.75;;;;;;;15.83;61.56;100684.14;1744491;82;21562;-54
2021/04/23 04:58:30;;;;;;;13.43;11.40;;;;;;;15.78;61.01;100690.03;1739502;81;21222;-69
2021/04/23 05:00:58;;;;;;;11.35;10.15;;;;;;;15.82;60.69;100683.72;1746343;81;21103;-53
2021/04/23 05:03:28;;;;;;;14.30;9.95;;;;;;;15.75;60.95;100683.48;1745032;81;21534;-53
2021/04/23 05:05:57;;;;;;;13.48;11.22;;;;;;;15.80;60.91;100684.22;1670785;84;21181;-70
2021/04/23 05:08:26;;;;;;;14.55;11.25;;;;;;;15.81;60.81;100675.78;1675971;84;21187;-70
2021/04/23 05:10:55;;;;;;;11.40;9.68;;;;;;;15.86;60.70;100677.45;1689219;84;21170;-54
2021/04/23 05:13:23;;;;;;;11.57;10.13;;;;;;;15.87;60.47;100678.30;1668514;86;21325;-53
2021/04/23 05:15:50;;;;;;;16.97;11.38;;;;;;;15.84;60.26;100671.72;1678997;85;21588;-69
2021/04/23 05:18:19;;;;;;;14.15;10.63;;;;;;;15.76;60.27;100675.46;1721133;82;21166;-54
2021/04/23 05:20:47;;;;;;;15.72;11.83;;;;;;;15.72;60.40;100680.44;1685098;84;21155;-69
2021/04/23 05:23:15;;;;;;;12.78;10.58;;;;;;;15.71;60.50;100680.50;1696399;84;21140;-53
2021/04/23 05:25:42;;;;;;;13.50;10.08;;;;;;;15.73;60.58;100687.48;1708931;84;21138;-69
2021/04/23 05:28:10;;;;;;;14.80;11.10;;;;;;;15.74;60.71;100689.23;1710904;83;21152;-69
2021/04/23 05:30:38;;;;;;;13.83;11.78;;;;;;;15.78;60.75;100684.72;1666928;86;21603;-52
2021/04/23 05:33:08;;;;;;;15.30;11.57;;;;;;;15.88;60.66;100692.87;1681460;84;21173;-69
2021/04/23 05:35:39;;;;;;;11.80;9.50;;;;;;;15.90;60.64;100696.79;1683103;84;21167;-69
2021/04/23 05:38:06;;;;;;;12.98;9.73;;;;;;;15.96;60.41;100681.13;1702602;84;21159;-68
2021/04/23 05:40:39;;;;;;;14.93;9.40;;;;;;;15.96;60.39;100692.62;1707232;84;21476;-53
2021/04/23 05:43:07;;;;;;;12.80;9.20;;;;;;;16.03;60.47;100693.31;1690710;84;21594;-69
2021/04/23 05:45:38;;;;;;;13.72;9.85;;;;;;;16.09;60.30;100689.14;1691018;83;21124;-54
2021/04/23 05:48:08;;;;;;;13.72;10.70;;;;;;;16.15;60.27;100690.73;1724474;83;21268;-69
2021/04/23 05:50:37;;;;;;;12.82;10.15;;;;;;;16.25;60.38;100694.00;1722545;83;21150;-53
2021/04/23 05:53:05;;;;;;;13.40;9.20;;;;;;;16.32;60.25;100707.03;1678526;85;21619;-54
2021/04/23 05:55:33;;;;;;;10.90;9.80;;;;;;;16.40;59.88;100707.25;1735051;82;21107;-55
2021/04/23 05:58:02;;;;;;;13.50;10.05;;;;;;;16.44;59.53;100705.77;1748672;82;21326;-54
2021/04/23 06:00:32;;;;;;;13.08;9.63;;;;;;;16.49;59.35;100704.31;1710985;83;21137;-54
2021/04/23 06:03:01;;;;;;;16.03;9.43;;;;;;;16.54;59.07;100692.20;1736229;80;21652;-69
2021/04/23 06:05:29;;;;;;;12.07;9.80;;;;;;;16.60;59.04;100697.31;1763972;81;21202;-68
2021/04/23 06:08:00;;;;;;;13.20;9.38;;;;;;;16.69;58.96;100691.70;1724281;81;21606;-54
2021/04/23 06:10:28;;;;;;;11.68;9.08;;;;;;;16.79;59.08;100690.94;1733982;82;21257;-69
2021/04/23 06:12:57;;;;;;;12.68;8.63;;;;;;;16.93;59.05;100689.14;1748124;82;21165;-68
2021/04/23 06:15:24;;;;;;;10.43;8.23;;;;;;;17.10;58.62;100688.59;1748502;82;21160;-54
2021/04/23 06:17:56;;;;;;;16.45;8.90;;;;;;;17.21;57.75;100692.23;1748170;82;21571;-67
2021/04/23 06:20:28;;;;;;;13.30;9.00;;;;;;;17.34;57.98;100691.33;1717325;82;21129;-54
2021/04/23 06:22:56;;;;;;;13.30;8.55;;;;;;;17.47;57.42;100690.42;1695968;84;21221;-53
2021/04/23 06:25:24;;;;;;;11.55;8.70;;;;;;;17.55;56.87;100689.68;1748219;82;21186;-54
2021/04/23 06:27:52;;;;;;;11.15;8.78;;;;;;;17.60;56.61;100689.05;1748044;82;21682;-55
2021/04/23 06:30:29;;;;;;;10.35;8.38;;;;;;;17.60;56.52;100685.51;1720110;82;21204;-54
2021/04/23 06:32:58;;;;;;;12.90;8.53;;;;;;;17.73;56.27;100692.57;1676439;85;21248;-68
2021/04/23 06:35:30;;;;;;;9.63;8.03;;;;;;;17.81;55.86;100692.71;1718586;83;21343;-54
2021/04/23 06:37:58;;;;;;;13.40;7.90;;;;;;;17.84;54.54;100690.38;1723884;82;21579;-68
2021/04/23 06:40:26;;;;;;;10.45;7.47;;;;;;;17.95;55.06;100691.30;1729417;82;21150;-68
2021/04/23 06:42:53;;;;;;;9.03;7.47;;;;;;;18.03;54.87;100693.24;1738693;82;21158;-68
2021/04/23 06:45:21;;;;;;;9.18;7.62;;;;;;;18.08;54.60;100697.93;1713473;82;21218;-54
2021/04/23 06:47:50;;;;;;;9.60;7.60;;;;;;;18.14;53.79;100695.48;1712915;82;21172;-68
2021/04/23 06:50:21;;;;;;;11.78;7.83;;;;;;;18.17;53.66;100696.70;1718262;83;21180;-54
2021/04/23 06:52:49;;;;;;;9.05;7.87;;;;;;;18.24;53.70;100693.34;1708074;84;21161;-54
2021/04/23 06:55:18;;;;;;;10.65;7.60;;;;;;;18.33;53.16;100690.78;1759023;81;21135;-68
2021/04/23 06:57:46;;;;;;;9.53;7.58;;;;;;;18.35;52.92;100692.91;1754076;81;21595;-68
2021/04/23 07:00:40;;;;;;;9.68;7.53;;;;;;;18.36;52.90;100691.98;1760989;81;21162;-67
2021/04/23 07:03:10;;;;;;;9.38;7.45;;;;;;;18.36;52.48;100692.84;1722693;83;21161;-65
2021/04/23 07:05:40;;;;;;;12.13;7.37;;;;;;;18.34;51.87;100694.70;1704716;84;21154;-53
2021/04/23 07:08:08;;;;;;;;;;;;;;;18.32;51.92;100701.03;1707242;84;21616;-53
2021/04/23 07:10:36;;;;;;;7.67;6.87;;;;;;;18.13;52.13;100708.39;1704530;84;20237;-53
2021/04/23 07:13:04;;;;;;;10.23;8.03;;;;;;;18.10;52.43;100712.54;1704641;84;21157;-53
2021/04/23 07:15:35;;;;;;;8.93;6.95;;;;;;;18.06;52.41;100717.09;1704527;84;21165;-66
2021/04/23 07:18:03;;;;;;;9.28;7.20;;;;;;;18.04;52.38;100715.44;1703561;84;21657;-53
2021/04/23 07:20:32;;;;;;;8.75;7.80;;;;;;;17.99;52.55;100711.59;1704496;84;21146;-66
2021/04/23 07:23:01;;;;;;;8.93;7.45;;;;;;;18.01;52.70;100715.06;1704721;84;21639;-54
2021/04/23 07:25:28;;;;;;;10.25;7.78;;;;;;;18.05;52.37;100709.18;1704578;84;21177;-54
2021/04/23 07:27:58;;;;;;;9.23;7.70;;;;;;;18.10;52.21;100706.73;1702858;83;21102;-53
2021/04/23 07:30:30;;;;;;;9.10;7.97;;;;;;;18.11;51.87;100707.58;1704601;84;21138;-66
2021/04/23 07:32:58;;;;;;;8.95;6.75;;;;;;;18.10;51.83;100704.06;1704875;83;21574;-66
2021/04/23 07:35:27;;;;;;;9.45;7.45;;;;;;;18.13;51.80;100710.61;1704626;84;21291;-53
2021/04/23 07:37:58;;;;;;;10.60;8.80;;;;;;;18.15;51.82;100715.86;1702598;83;21134;-66
2021/04/23 07:40:27;;;;;;;9.45;8.38;;;;;;;18.13;51.54;100722.59;1694857;84;21161;-67
2021/04/23 07:42:56;;;;;;;11.75;7.35;;;;;;;17.45;53.10;100725.05;1692066;83;21292;-54
2021/04/23 07:45:24;;;;;;;9.10;7.62;;;;;;;17.05;54.24;100737.95;1704569;84;21158;-67
2021/04/23 07:47:52;;;;;;;10.53;7.42;;;;;;;16.90;54.92;100744.63;1678591;84;21219;-52
2021/04/23 07:50:23;;;;;;;11.15;7.50;;;;;;;16.88;55.23;100752.22;1704342;84;21173;-66
2021/04/23 07:52:54;;;;;;;8.78;7.22;;;;;;;16.87;55.30;100754.03;1704588;83;21183;-53
2021/04/23 07:55:22;;;;;;;;;;;;;;;17.77;53.17;100742.11;1707037;84;21569;-54
2021/04/23 07:57:50;;;;;;;14.05;8.08;;;;;;;17.86;52.69;100743.59;1704421;84;20209;-69
2021/04/23 08:00:20;;;;;;;8.98;7.53;;;;;;;17.82;52.80;100742.37;1704820;84;21194;-54
2021/04/23 08:02:47;;;;;;;9.23;7.87;;;;;;;17.86;52.99;100736.45;1698437;83;21170;-68
2021/04/23 08:05:18;;;;;;;9.10;8.20;;;;;;;17.91;52.90;100731.83;1697136;84;21151;-67
2021/04/23 08:07:49;;;;;;;8.78;7.83;;;;;;;17.93;52.64;100734.42;1690006;84;21180;-66
2021/04/23 08:10:19;;;;;;;9.60;8.33;;;;;;;17.91;52.89;100722.52;1696106;84;21163;-65
2021/04/23 08:12:51;;;;;;;9.18;7.87;;;;;;;17.96;52.97;100705.02;1681428;83;21192;-65
2021/04/23 08:15:20;;;;;;;10.50;8.48;;;;;;;17.88;53.46;100686.68;1696963;84;21135;-52
2021/04/23 08:17:50;;;;;;;8.90;7.78;;;;;;;17.89;53.68;100695.08;1697016;83;21174;-52
2021/04/23 08:20:18;;;;;;;10.98;8.60;;;;;;;17.92;53.76;100702.95;1696894;84;21166;-65
2021/04/23 08:22:48;;;;;;;10.53;8.43;;;;;;;17.95;54.05;100716.15;1697079;83;21147;-66
2021/04/23 08:25:19;;;;;;;9.10;8.05;;;;;;;18.04;54.09;100715.44;1696680;84;21186;-66
2021/04/23 08:27:50;;;;;;;10.85;8.95;;;;;;;18.13;54.04;100718.60;1696683;83;21182;-54
2021/04/23 08:30:24;;;;;;;9.65;7.70;;;;;;;18.22;53.24;100718.70;1669698;84;21198;-54
2021/04/23 08:32:54;;;;;;;9.80;8.65;;;;;;;18.25;53.53;100716.40;1669352;84;21166;-63
2021/04/23 08:35:22;;;;;;;10.32;8.15;;;;;;;18.34;53.59;100716.49;1681353;84;21297;-67
2021/04/23 08:37:52;;;;;;;9.13;8.23;;;;;;;18.43;53.32;100715.66;1696957;83;21232;-54
2021/04/23 08:40:21;;;;;;;9.05;8.10;;;;;;;18.51;53.41;100711.82;1697086;84;21596;-49
2021/04/23 08:42:51;;;;;;;9.58;7.90;;;;;;;18.58;52.97;100711.98;1696900;83;21146;-66
2021/04/23 08:45:20;;;;;;;;;;;;;;;18.62;52.63;100698.93;1724916;83;21142;-65
2021/04/23 08:47:49;;;;;;;8.15;7.22;;;;;;;18.66;53.19;100695.66;1714774;81;20422;-66
2021/04/23 08:50:20;;;;;;;8.75;7.83;;;;;;;18.76;52.92;100694.36;1703527;83;21617;-53
2021/04/23 08:52:49;;;;;;;9.58;8.43;;;;;;;18.83;52.90;100693.63;1734023;81;21277;-53
2021/04/23 08:55:58;;;;;;;10.28;8.43;;;;;;;18.96;52.60;100690.03;1702147;83;21676;-65
2021/04/23 08:58:26;;;;;;;10.65;8.25;;;;;;;18.70;52.86;100683.94;1697085;83;21185;-53
2021/04/23 09:00:54;;;;;;;8.73;7.72;;;;;;;19.14;52.46;100685.70;1697081;84;21636;-66
2021/04/23 09:06:24;;;;;;;8.98;8.03;;;;;;;19.39;51.53;100672.16;1820555;77;20165;-52
2021/04/23 09:09:08;;;;;;;9.70;7.50;;;;;;;19.49;51.63;100680.61;1768852;80;21597;-67
2021/04/23 09:11:43;;;;;;;9.03;8.13;;;;;;;19.61;50.80;100684.52;1758691;81;21130;-53
2021/04/23 09:14:20;;;;;;;9.60;8.20;;;;;;;19.65;49.65;100680.78;1757448;81;21166;-67
2021/04/23 09:16:55;;;;;;;10.05;7.92;;;;;;;19.67;49.51;100686.03;1758333;81;21139;-54
2021/04/23 09:19:32;;;;;;;8.78;7.90;;;;;;;19.62;48.51;100680.91;1758446;81;21142;-67
2021/04/23 09:22:20;;;;;;;10.15;8.23;;;;;;;19.51;48.17;100681.41;1758574;81;21138;-67
2021/04/23 09:25:00;;;;;;;8.90;7.80;;;;;;;19.45;49.04;100679.01;1730303;81;21589;-66
2021/04/23 09:27:35;;;;;;;11.30;8.63;;;;;;;19.42;48.35;100673.80;1745756;81;21134;-66
2021/04/23 09:30:09;;;;;;;12.18;9.45;;;;;;;19.43;49.34;100668.87;1754262;81;21577;-54
2021/04/23 09:32:39;;;;;;;11.03;8.38;;;;;;;19.51;49.78;100667.17;1757661;81;21168;-54
2021/04/23 09:35:17;;;;;;;9.10;7.47;;;;;;;19.61;49.99;100661.38;1758395;81;21122;-54
2021/04/23 09:37:47;;;;;;;10.58;8.43;;;;;;;19.74;49.15;100654.11;1758123;81;21126;-54
2021/04/23 09:40:22;;;;;;;;;;;;;;;19.87;49.02;100657.10;1750663;81;21122;-65
2021/04/23 09:43:01;;;;;;;13.03;8.63;;;;;;;19.94;48.49;100643.86;1812349;77;22198;-53
2021/04/23 09:45:35;;;;;;;11.57;8.78;;;;;;;20.00;48.93;100644.91;1734488;81;21621;-54
2021/04/23 09:48:04;;;;;;;9.35;8.35;;;;;;;20.06;48.09;100643.28;1731829;82;21174;-54
2021/04/23 09:50:35;;;;;;;10.30;8.00;;;;;;;20.12;47.49;100642.11;1734060;81;21134;-66
2021/04/23 09:53:03;;;;;;;12.82;9.08;;;;;;;20.20;48.06;100638.61;1762090;80;21625;-54
2021/04/23 09:55:33;;;;;;;12.33;7.95;;;;;;;20.29;47.07;100631.97;1761752;81;21281;-66
2021/04/23 09:58:09;;;;;;;8.53;6.35;;;;;;;20.43;47.01;100625.05;1761984;81;21178;-67
2021/04/23 10:00:40;;;;;;;8.95;5.60;;;;;;;20.53;44.14;100621.47;1761764;81;21135;-67
2021/04/23 10:03:09;;;;;;;8.45;5.47;;;;;;;20.61;42.63;100617.91;1761362;80;21139;-51
2021/04/23 10:05:43;;;;;;;7.87;5.40;;;;;;;20.70;41.39;100612.10;1762333;81;21732;-66
2021/04/23 10:08:24;;;;;;;11.22;6.83;;;;;;;20.84;42.17;100618.10;1758085;81;22011;-65
2021/04/23 10:10:56;;;;;;;5.92;4.25;;;;;;;20.95;41.27;100616.23;1754214;81;21107;-67
2021/04/23 10:13:32;;;;;;;5.00;4.00;;;;;;;20.94;39.28;100618.03;1760273;81;21146;-54
2021/04/23 10:16:00;;;;;;;6.25;3.90;;;;;;;20.90;38.31;100624.48;1759733;81;21158;-53
2021/04/23 10:18:29;;;;;;;6.15;4.15;;;;;;;20.90;39.39;100624.48;1756621;81;21127;-63
2021/04/23 10:20:59;;;;;;;10.08;6.08;;;;;;;20.93;39.33;100626.14;1746189;81;21186;-62
2021/04/23 10:23:29;;;;;;;13.53;10.75;;;;;;;20.94;41.31;100634.08;1758900;81;21305;-53
2021/04/23 10:25:57;;;;;;;13.53;11.40;;;;;;;20.79;44.57;100641.09;1761731;81;21159;-63
2021/04/23 10:28:26;;;;;;;13.65;11.68;;;;;;;20.58;45.86;100647.02;1756806;81;21323;-67
2021/04/23 10:30:55;;;;;;;12.95;10.80;;;;;;;20.37;47.01;100650.28;1736090;81;21260;-65
2021/04/23 10:33:25;;;;;;;12.35;10.55;;;;;;;20.19;48.24;100669.42;1731806;83;21119;-65
2021/04/23 10:35:55;;;;;;;11.23;9.90;;;;;;;19.69;49.15;100668.14;1757778;81;21127;-53
2021/04/23 10:38:35;;;;;;;11.63;10.10;;;;;;;19.69;49.15;100668.14;1732750;81;21695;-64
2021/04/23 10:41:08;;;;;;;14.03;11.97;;;;;;;19.47;49.92;100675.80;1730096;82;21142;-60
2021/04/23 10:43:36;;;;;;;11.97;10.75;;;;;;;19.06;51.01;100687.34;1746040;80;21147;-63
2021/04/23 10:48:48;;;;;;;14.38;12.18;;;;;;;18.56;52.92;100692.03;1807142;77;22209;-62
2021/04/23 10:51:26;;;;;;;13.20;11.70;;;;;;;18.38;53.03;100697.64;1760626;81;21140;-61
2021/04/23 10:54:13;;;;;;;15.35;12.60;;;;;;;18.24;53.80;100703.52;1761839;81;21295;-54
2021/04/23 10:56:42;;;;;;;13.98;12.53;;;;;;;18.20;54.40;100709.05;1762205;81;21134;-64
2021/04/23 11:06:39;;;;;;;16.65;14.93;;;;;;;17.08;58.81;100699.73;1800830;77;38814;-62
2021/04/23 11:09:15;;;;;;;16.15;14.28;;;;;;;17.27;58.97;100708.42;1778795;80;21170;-61
2021/04/23 11:11:44;;;;;;;15.88;13.53;;;;;;;17.41;58.70;100706.16;1785139;80;21127;-64
2021/04/23 11:14:27;;;;;;;19.10;16.20;;;;;;;17.35;59.09;100711.69;1742670;81;21208;-55
2021/04/23 11:17:21;;;;;;;14.85;13.38;;;;;;;17.29;59.36;100706.58;1767080;80;21665;-64
2021/04/23 11:19:52;;;;;;;15.72;14.15;;;;;;;17.12;59.84;100705.84;1793277;80;21175;-63
2021/04/23 11:22:23;;;;;;;18.40;16.40;;;;;;;16.97;60.07;100708.09;1776265;80;21107;-54
2021/04/23 11:25:15;;;;;;;15.65;14.05;;;;;;;16.63;61.33;100710.03;1764853;80;21168;-63
2021/04/23 11:28:08;;;;;;;16.50;14.80;;;;;;;16.36;61.49;100711.77;1768691;80;21181;-63
2021/04/23 11:30:58;;;;;;;18.32;16.50;;;;;;;16.30;61.38;100711.98;1778131;79;21166;-53
2021/04/23 11:33:48;;;;;;;19.30;17.00;;;;;;;16.33;61.12;100719.86;1727311;83;21182;-54
2021/04/23 11:36:26;;;;;;;17.60;15.80;;;;;;;16.22;61.42;100728.14;1679555;85;21132;-64
2021/04/23 11:39:08;;;;;;;17.80;15.90;;;;;;;16.07;61.99;100712.22;1727911;83;21170;-64
2021/04/23 11:41:39;;;;;;;18.57;16.67;;;;;;;16.07;62.58;100716.67;1728540;83;21316;-55
2021/04/23 11:44:45;;;;;;;17.10;15.40;;;;;;;16.03;63.33;100710.56;1692322;83;21185;-64
2021/04/23 11:47:29;;;;;;;14.87;13.28;;;;;;;15.96;63.00;100706.34;1698333;83;21142;-62
2021/04/23 11:50:12;;;;;;;13.70;12.28;;;;;;;15.89;63.30;100706.55;1725912;83;21231;-63